sensor_id;sensor_type;location;lat;lon;timestamp;pressure;altitude;pressure_sealevel;temperature;humidity
50790;BME280;37287;47.554;7.844;2023-05-23T00:01:13;97693.00;;;16.04;95.72
50790;BME280;37287;47.554;7.844;2023-05-23T00:03:44;97688.03;;;15.98;96.45
50790;BME280;37287;47.554;7.844;2023-05-23T00:06:12;97683.09;;;15.90;97.04
50790;BME280;37287;47.554;7.844;2023-05-23T00:08:40;97682.84;;;15.80;98.49
50790;BME280;37287;47.554;7.844;2023-05-23T00:11:08;97681.84;;;15.94;98.56
50790;BME280;37287;47.554;7.844;2023-05-23T00:13:35;97689.69;;;15.92;97.39
50790;BME280;37287;47.554;7.844;2023-05-23T00:16:02;97702.16;;;15.93;97.61
50790;BME280;37287;47.554;7.844;2023-05-23T00:18:32;97685.53;;;16.08;97.39
50790;BME280;37287;47.554;7.844;2023-05-23T00:20:58;97691.91;;;16.21;96.91
50790;BME280;37287;47.554;7.844;2023-05-23T00:23:25;97690.50;;;16.13;96.06
50790;BME280;37287;47.554;7.844;2023-05-23T00:25:55;97688.19;;;16.11;97.11
50790;BME280;37287;47.554;7.844;2023-05-23T00:28:21;97682.53;;;16.22;95.97
50790;BME280;37287;47.554;7.844;2023-05-23T00:30:48;97686.59;;;16.14;95.34
50790;BME280;37287;47.554;7.844;2023-05-23T00:33:21;97687.84;;;16.09;95.49
50790;BME280;37287;47.554;7.844;2023-05-23T00:35:49;97688.34;;;15.77;96.63
50790;BME280;37287;47.554;7.844;2023-05-23T00:38:16;97690.59;;;15.58;98.29
50790;BME280;37287;47.554;7.844;2023-05-23T00:40:43;97695.34;;;15.54;99.49
50790;BME280;37287;47.554;7.844;2023-05-23T00:43:10;97694.38;;;15.64;100.00
50790;BME280;37287;47.554;7.844;2023-05-23T00:45:37;97689.53;;;15.76;99.59
50790;BME280;37287;47.554;7.844;2023-05-23T00:48:06;97686.16;;;15.68;99.22
50790;BME280;37287;47.554;7.844;2023-05-23T00:50:35;97688.31;;;15.80;99.57
50790;BME280;37287;47.554;7.844;2023-05-23T00:53:02;97693.00;;;15.80;98.49
50790;BME280;37287;47.554;7.844;2023-05-23T00:55:31;97685.63;;;15.77;99.10
50790;BME280;37287;47.554;7.844;2023-05-23T00:57:58;97680.94;;;15.77;99.20
50790;BME280;37287;47.554;7.844;2023-05-23T01:00:25;97681.94;;;15.63;98.76
50790;BME280;37287;47.554;7.844;2023-05-23T01:02:53;97685.13;;;15.58;99.81
50790;BME280;37287;47.554;7.844;2023-05-23T01:05:20;97682.00;;;15.60;99.54
50790;BME280;37287;47.554;7.844;2023-05-23T01:07:50;97684.16;;;15.45;100.00
50790;BME280;37287;47.554;7.844;2023-05-23T01:10:28;97684.38;;;15.30;100.00
50790;BME280;37287;47.554;7.844;2023-05-23T01:18:37;97693.91;;;14.88;100.00
50790;BME280;37287;47.554;7.844;2023-05-23T01:21:14;97695.19;;;14.76;100.00
50790;BME280;37287;47.554;7.844;2023-05-23T01:26:45;97686.50;;;14.88;100.00
50790;BME280;37287;47.554;7.844;2023-05-23T01:29:21;97691.50;;;14.93;100.00
50790;BME280;37287;47.554;7.844;2023-05-23T01:31:53;97695.78;;;14.94;100.00
50790;BME280;37287;47.554;7.844;2023-05-23T01:34:22;97696.84;;;15.01;100.00
50790;BME280;37287;47.554;7.844;2023-05-23T01:36:54;97703.28;;;15.14;100.00
50790;BME280;37287;47.554;7.844;2023-05-23T01:39:22;97689.41;;;15.05;100.00
50790;BME280;37287;47.554;7.844;2023-05-23T01:41:49;97695.50;;;15.16;100.00
50790;BME280;37287;47.554;7.844;2023-05-23T01:44:16;97701.66;;;14.89;100.00
50790;BME280;37287;47.554;7.844;2023-05-23T01:46:47;97701.16;;;14.67;100.00
50790;BME280;37287;47.554;7.844;2023-05-23T01:49:18;97701.56;;;14.66;100.00
50790;BME280;37287;47.554;7.844;2023-05-23T01:51:49;97697.75;;;14.56;100.00
50790;BME280;37287;47.554;7.844;2023-05-23T01:54:16;97704.84;;;14.46;100.00
50790;BME280;37287;47.554;7.844;2023-05-23T01:56:46;97702.84;;;14.50;100.00
50790;BME280;37287;47.554;7.844;2023-05-23T01:59:17;97702.84;;;14.50;100.00
50790;BME280;37287;47.554;7.844;2023-05-23T02:01:44;97703.44;;;14.34;100.00
50790;BME280;37287;47.554;7.844;2023-05-23T02:04:10;97698.31;;;14.40;100.00
50790;BME280;37287;47.554;7.844;2023-05-23T02:06:37;97696.91;;;14.24;100.00
50790;BME280;37287;47.554;7.844;2023-05-23T02:09:06;97695.47;;;14.13;100.00
50790;BME280;37287;47.554;7.844;2023-05-23T02:11:34;97701.75;;;14.06;100.00
50790;BME280;37287;47.554;7.844;2023-05-23T02:14:01;97700.88;;;14.16;100.00
50790;BME280;37287;47.554;7.844;2023-05-23T02:16:27;97703.53;;;14.23;100.00
50790;BME280;37287;47.554;7.844;2023-05-23T02:18:54;97695.03;;;14.18;100.00
50790;BME280;37287;47.554;7.844;2023-05-23T02:21:26;97703.84;;;14.33;100.00
50790;BME280;37287;47.554;7.844;2023-05-23T02:23:53;97711.91;;;14.43;100.00
50790;BME280;37287;47.554;7.844;2023-05-23T02:26:20;97709.19;;;14.43;100.00
50790;BME280;37287;47.554;7.844;2023-05-23T02:28:47;97716.97;;;14.41;100.00
50790;BME280;37287;47.554;7.844;2023-05-23T02:31:13;97720.44;;;14.42;100.00
50790;BME280;37287;47.554;7.844;2023-05-23T02:33:42;97724.66;;;14.50;100.00
50790;BME280;37287;47.554;7.844;2023-05-23T02:38:43;97729.25;;;14.57;100.00
50790;BME280;37287;47.554;7.844;2023-05-23T02:41:10;97723.13;;;14.49;100.00
50790;BME280;37287;47.554;7.844;2023-05-23T02:43:38;97727.03;;;14.48;100.00
50790;BME280;37287;47.554;7.844;2023-05-23T02:46:05;97734.72;;;14.57;100.00
50790;BME280;37287;47.554;7.844;2023-05-23T02:48:32;97734.72;;;14.57;100.00
50790;BME280;37287;47.554;7.844;2023-05-23T02:50:59;97731.66;;;14.51;100.00
50790;BME280;37287;47.554;7.844;2023-05-23T02:53:26;97727.03;;;14.44;100.00
50790;BME280;37287;47.554;7.844;2023-05-23T02:55:54;97728.63;;;14.42;100.00
50790;BME280;37287;47.554;7.844;2023-05-23T02:58:21;97729.28;;;14.53;100.00
50790;BME280;37287;47.554;7.844;2023-05-23T03:00:47;97736.69;;;14.53;100.00
50790;BME280;37287;47.554;7.844;2023-05-23T03:03:14;97728.69;;;14.38;100.00
50790;BME280;37287;47.554;7.844;2023-05-23T03:05:47;97733.41;;;14.31;100.00
50790;BME280;37287;47.554;7.844;2023-05-23T03:08:15;97735.28;;;14.37;100.00
50790;BME280;37287;47.554;7.844;2023-05-23T03:10:43;97728.34;;;14.33;100.00
50790;BME280;37287;47.554;7.844;2023-05-23T03:13:10;97727.25;;;14.23;100.00
50790;BME280;37287;47.554;7.844;2023-05-23T03:15:37;97732.63;;;14.34;100.00
50790;BME280;37287;47.554;7.844;2023-05-23T03:20:39;97743.56;;;14.26;100.00
50790;BME280;37287;47.554;7.844;2023-05-23T03:23:06;97732.66;;;14.26;100.00
50790;BME280;37287;47.554;7.844;2023-05-23T03:25:33;97733.44;;;14.27;100.00
50790;BME280;37287;47.554;7.844;2023-05-23T03:28:06;97732.59;;;13.92;100.00
50790;BME280;37287;47.554;7.844;2023-05-23T03:30:33;97735.19;;;13.54;100.00
50790;BME280;37287;47.554;7.844;2023-05-23T03:32:59;97737.25;;;13.35;100.00
50790;BME280;37287;47.554;7.844;2023-05-23T03:35:27;97731.06;;;13.24;100.00
50790;BME280;37287;47.554;7.844;2023-05-23T03:37:53;97735.78;;;13.13;100.00
50790;BME280;37287;47.554;7.844;2023-05-23T03:40:22;97733.47;;;13.07;100.00
50790;BME280;37287;47.554;7.844;2023-05-23T03:43:06;97735.03;;;13.05;100.00
50790;BME280;37287;47.554;7.844;2023-05-23T03:45:34;97741.25;;;13.02;100.00
50790;BME280;37287;47.554;7.844;2023-05-23T03:48:00;97735.03;;;13.05;100.00
50790;BME280;37287;47.554;7.844;2023-05-23T03:50:27;97750.16;;;13.10;100.00
50790;BME280;37287;47.554;7.844;2023-05-23T03:52:54;97749.00;;;13.07;100.00
50790;BME280;37287;47.554;7.844;2023-05-23T03:55:21;97747.44;;;13.10;100.00
50790;BME280;37287;47.554;7.844;2023-05-23T03:57:54;97743.94;;;13.09;100.00
50790;BME280;37287;47.554;7.844;2023-05-23T04:00:23;97745.41;;;13.24;100.00
50790;BME280;37287;47.554;7.844;2023-05-23T04:02:49;97755.13;;;13.25;100.00
50790;BME280;37287;47.554;7.844;2023-05-23T04:05:19;97765.59;;;13.27;100.00
50790;BME280;37287;47.554;7.844;2023-05-23T04:07:47;97764.38;;;13.46;100.00
50790;BME280;37287;47.554;7.844;2023-05-23T04:10:14;97769.69;;;13.68;100.00
50790;BME280;37287;47.554;7.844;2023-05-23T04:12:41;97768.59;;;13.54;100.00
50790;BME280;37287;47.554;7.844;2023-05-23T04:15:08;97769.03;;;13.49;100.00
50790;BME280;37287;47.554;7.844;2023-05-23T04:17:35;97776.38;;;13.52;100.00
50790;BME280;37287;47.554;7.844;2023-05-23T04:20:06;97778.25;;;13.63;100.00
50790;BME280;37287;47.554;7.844;2023-05-23T04:22:35;97789.44;;;13.79;100.00
50790;BME280;37287;47.554;7.844;2023-05-23T04:25:01;97777.69;;;13.93;100.00
50790;BME280;37287;47.554;7.844;2023-05-23T04:27:28;97785.75;;;14.04;100.00
50790;BME280;37287;47.554;7.844;2023-05-23T04:29:56;97785.44;;;13.95;100.00
50790;BME280;37287;47.554;7.844;2023-05-23T04:32:23;97782.38;;;13.89;100.00
50790;BME280;37287;47.554;7.844;2023-05-23T04:34:52;97779.59;;;13.92;100.00
50790;BME280;37287;47.554;7.844;2023-05-23T04:37:19;97780.09;;;14.33;100.00
50790;BME280;37287;47.554;7.844;2023-05-23T04:39:47;97778.84;;;14.41;100.00
50790;BME280;37287;47.554;7.844;2023-05-23T04:42:18;97768.75;;;14.38;100.00
50790;BME280;37287;47.554;7.844;2023-05-23T04:47:48;97788.69;;;15.07;100.00
50790;BME280;37287;47.554;7.844;2023-05-23T04:50:17;97777.94;;;15.55;100.00
50790;BME280;37287;47.554;7.844;2023-05-23T04:52:43;97776.91;;;16.27;100.00
50790;BME280;37287;47.554;7.844;2023-05-23T04:55:10;97772.91;;;16.75;100.00
50790;BME280;37287;47.554;7.844;2023-05-23T04:57:37;97776.84;;;16.74;100.00
50790;BME280;37287;47.554;7.844;2023-05-23T05:00:04;97783.94;;;17.32;99.45
50790;BME280;37287;47.554;7.844;2023-05-23T05:02:36;97786.28;;;17.86;95.88
50790;BME280;37287;47.554;7.844;2023-05-23T05:07:38;97784.56;;;18.59;90.88
50790;BME280;37287;47.554;7.844;2023-05-23T05:10:06;97796.72;;;19.03;89.56
50790;BME280;37287;47.554;7.844;2023-05-23T05:12:34;97792.19;;;19.39;86.84
50790;BME280;37287;47.554;7.844;2023-05-23T05:15:05;97798.22;;;19.34;86.23
50790;BME280;37287;47.554;7.844;2023-05-23T05:17:32;97803.91;;;19.27;87.72
50790;BME280;37287;47.554;7.844;2023-05-23T05:20:03;97803.16;;;19.26;86.53
50790;BME280;37287;47.554;7.844;2023-05-23T05:22:36;97806.13;;;19.32;87.05
50790;BME280;37287;47.554;7.844;2023-05-23T05:25:06;97793.97;;;19.03;86.93
50790;BME280;37287;47.554;7.844;2023-05-23T05:27:33;97796.41;;;18.85;87.96
50790;BME280;37287;47.554;7.844;2023-05-23T05:30:07;97798.44;;;18.68;88.52
50790;BME280;37287;47.554;7.844;2023-05-23T05:32:34;97789.47;;;18.80;88.72
50790;BME280;37287;47.554;7.844;2023-05-23T05:35:03;97800.41;;;19.26;88.00
50790;BME280;37287;47.554;7.844;2023-05-23T05:37:38;97802.59;;;19.99;83.79
50790;BME280;37287;47.554;7.844;2023-05-23T05:40:05;97801.59;;;19.93;83.32
50790;BME280;37287;47.554;7.844;2023-05-23T05:42:34;97797.56;;;20.33;82.26
50790;BME280;37287;47.554;7.844;2023-05-23T05:45:01;97802.56;;;20.73;80.70
50790;BME280;37287;47.554;7.844;2023-05-23T05:47:27;97813.97;;;21.06;79.25
50790;BME280;37287;47.554;7.844;2023-05-23T05:49:56;97812.03;;;21.16;78.08
50790;BME280;37287;47.554;7.844;2023-05-23T05:52:29;97821.53;;;20.93;79.37
50790;BME280;37287;47.554;7.844;2023-05-23T05:54:56;97820.50;;;21.22;79.27
50790;BME280;37287;47.554;7.844;2023-05-23T05:57:23;97813.56;;;21.61;76.41
50790;BME280;37287;47.554;7.844;2023-05-23T05:59:51;97818.25;;;21.83;75.87
50790;BME280;37287;47.554;7.844;2023-05-23T06:02:19;97823.50;;;21.90;75.56
50790;BME280;37287;47.554;7.844;2023-05-23T06:04:46;97823.41;;;22.12;74.96
50790;BME280;37287;47.554;7.844;2023-05-23T06:07:13;97817.00;;;22.15;74.18
50790;BME280;37287;47.554;7.844;2023-05-23T06:09:39;97816.38;;;21.71;75.45
50790;BME280;37287;47.554;7.844;2023-05-23T06:12:06;97824.16;;;21.19;78.05
50790;BME280;37287;47.554;7.844;2023-05-23T06:14:35;97821.13;;;21.26;78.58
50790;BME280;37287;47.554;7.844;2023-05-23T06:17:02;97820.88;;;20.89;79.65
50790;BME280;37287;47.554;7.844;2023-05-23T06:19:29;97828.44;;;20.50;81.83
50790;BME280;37287;47.554;7.844;2023-05-23T06:21:55;97823.75;;;20.37;83.05
50790;BME280;37287;47.554;7.844;2023-05-23T06:24:22;97825.19;;;20.29;83.00
50790;BME280;37287;47.554;7.844;2023-05-23T06:26:49;97820.47;;;20.30;83.19
50790;BME280;37287;47.554;7.844;2023-05-23T06:29:17;97821.03;;;20.59;81.66
50790;BME280;37287;47.554;7.844;2023-05-23T06:31:43;97823.44;;;21.05;79.54
50790;BME280;37287;47.554;7.844;2023-05-23T06:34:10;97826.69;;;20.91;79.99
50790;BME280;37287;47.554;7.844;2023-05-23T06:36:40;97825.88;;;21.03;79.58
50790;BME280;37287;47.554;7.844;2023-05-23T06:39:08;97822.56;;;21.08;79.76
50790;BME280;37287;47.554;7.844;2023-05-23T06:41:35;97828.94;;;21.27;79.27
50790;BME280;37287;47.554;7.844;2023-05-23T06:44:06;97835.34;;;21.24;79.01
50790;BME280;37287;47.554;7.844;2023-05-23T06:46:32;97828.81;;;21.31;79.31
50790;BME280;37287;47.554;7.844;2023-05-23T06:48:59;97826.25;;;21.37;79.47
50790;BME280;37287;47.554;7.844;2023-05-23T06:51:40;97822.47;;;21.43;79.48
50790;BME280;37287;47.554;7.844;2023-05-23T06:54:07;97830.47;;;21.51;78.20
50790;BME280;37287;47.554;7.844;2023-05-23T06:56:35;97829.59;;;21.09;79.80
50790;BME280;37287;47.554;7.844;2023-05-23T06:59:02;97832.03;;;21.07;80.84
50790;BME280;37287;47.554;7.844;2023-05-23T07:01:28;97831.38;;;21.03;80.79
50790;BME280;37287;47.554;7.844;2023-05-23T07:03:55;97828.63;;;20.68;81.96
50790;BME280;37287;47.554;7.844;2023-05-23T07:06:22;97829.34;;;20.47;83.12
50790;BME280;37287;47.554;7.844;2023-05-23T07:08:50;97844.66;;;20.35;83.84
50790;BME280;37287;47.554;7.844;2023-05-23T07:11:23;97848.28;;;20.19;84.62
50790;BME280;37287;47.554;7.844;2023-05-23T07:13:49;97851.16;;;20.28;84.61
50790;BME280;37287;47.554;7.844;2023-05-23T07:16:16;97845.66;;;20.28;84.47
50790;BME280;37287;47.554;7.844;2023-05-23T07:18:43;97842.56;;;20.26;84.48
50790;BME280;37287;47.554;7.844;2023-05-23T07:21:11;97845.19;;;20.42;83.97
50790;BME280;37287;47.554;7.844;2023-05-23T07:23:39;97839.47;;;20.37;83.91
50790;BME280;37287;47.554;7.844;2023-05-23T07:26:12;97851.56;;;20.39;84.19
50790;BME280;37287;47.554;7.844;2023-05-23T07:28:39;97848.72;;;20.43;84.08
50790;BME280;37287;47.554;7.844;2023-05-23T07:31:05;97847.16;;;20.42;84.47
50790;BME280;37287;47.554;7.844;2023-05-23T07:33:41;97855.69;;;20.57;83.62
50790;BME280;37287;47.554;7.844;2023-05-23T07:36:08;97850.84;;;20.61;82.96
50790;BME280;37287;47.554;7.844;2023-05-23T07:38:35;97841.84;;;20.73;83.54
50790;BME280;37287;47.554;7.844;2023-05-23T07:41:03;97846.44;;;21.34;80.96
50790;BME280;37287;47.554;7.844;2023-05-23T07:43:37;97846.88;;;21.86;79.09
50790;BME280;37287;47.554;7.844;2023-05-23T07:46:04;97846.88;;;22.17;76.90
50790;BME280;37287;47.554;7.844;2023-05-23T07:48:35;97842.75;;;22.22;77.49
50790;BME280;37287;47.554;7.844;2023-05-23T07:51:02;97844.22;;;22.04;78.21
50790;BME280;37287;47.554;7.844;2023-05-23T07:53:29;97846.88;;;22.26;77.80
50790;BME280;37287;47.554;7.844;2023-05-23T07:55:57;97849.94;;;22.19;77.50
50790;BME280;37287;47.554;7.844;2023-05-23T07:58:26;97851.75;;;22.13;78.23
50790;BME280;37287;47.554;7.844;2023-05-23T08:00:53;97850.97;;;22.12;77.56
50790;BME280;37287;47.554;7.844;2023-05-23T08:03:21;97845.56;;;22.40;77.48
50790;BME280;37287;47.554;7.844;2023-05-23T08:05:48;97847.88;;;22.42;76.71
50790;BME280;37287;47.554;7.844;2023-05-23T08:08:18;97851.59;;;22.57;75.82
50790;BME280;37287;47.554;7.844;2023-05-23T08:10:46;97848.38;;;22.68;76.16
50790;BME280;37287;47.554;7.844;2023-05-23T08:13:12;97848.25;;;22.99;75.17
50790;BME280;37287;47.554;7.844;2023-05-23T08:15:39;97841.94;;;23.08;74.52
50790;BME280;37287;47.554;7.844;2023-05-23T08:18:06;97843.78;;;23.30;74.20
50790;BME280;37287;47.554;7.844;2023-05-23T08:20:33;97837.91;;;23.56;73.02
50790;BME280;37287;47.554;7.844;2023-05-23T08:23:02;97841.34;;;23.32;73.71
50790;BME280;37287;47.554;7.844;2023-05-23T08:25:35;97847.47;;;23.36;74.13
50790;BME280;37287;47.554;7.844;2023-05-23T08:28:01;97848.94;;;23.65;72.88
50790;BME280;37287;47.554;7.844;2023-05-23T08:30:28;97853.19;;;23.84;72.08
50790;BME280;37287;47.554;7.844;2023-05-23T08:32:57;97848.81;;;24.02;71.45
50790;BME280;37287;47.554;7.844;2023-05-23T08:35:25;97841.69;;;23.77;72.30
50790;BME280;37287;47.554;7.844;2023-05-23T08:37:54;97848.28;;;23.79;72.73
50790;BME280;37287;47.554;7.844;2023-05-23T08:40:26;97850.16;;;24.16;71.35
50790;BME280;37287;47.554;7.844;2023-05-23T08:42:56;97844.16;;;24.42;68.98
50790;BME280;37287;47.554;7.844;2023-05-23T08:45:23;97844.88;;;24.27;68.97
50790;BME280;37287;47.554;7.844;2023-05-23T08:47:53;97849.75;;;24.08;69.23
50790;BME280;37287;47.554;7.844;2023-05-23T08:50:21;97853.31;;;23.99;69.76
50790;BME280;37287;47.554;7.844;2023-05-23T08:52:56;97850.28;;;23.88;69.24
50790;BME280;37287;47.554;7.844;2023-05-23T08:55:26;97850.13;;;23.82;69.92
50790;BME280;37287;47.554;7.844;2023-05-23T08:57:54;97842.00;;;23.69;68.11
50790;BME280;37287;47.554;7.844;2023-05-23T09:00:22;97846.69;;;23.54;70.47
50790;BME280;37287;47.554;7.844;2023-05-23T09:02:52;97846.25;;;23.37;71.18
50790;BME280;37287;47.554;7.844;2023-05-23T09:05:20;97850.88;;;23.12;72.34
50790;BME280;37287;47.554;7.844;2023-05-23T09:07:48;97853.00;;;22.99;72.87
50790;BME280;37287;47.554;7.844;2023-05-23T09:10:31;97850.06;;;22.65;73.70
50790;BME280;37287;47.554;7.844;2023-05-23T09:13:02;97848.97;;;22.63;73.71
50790;BME280;37287;47.554;7.844;2023-05-23T09:15:29;97854.47;;;22.54;74.11
50790;BME280;37287;47.554;7.844;2023-05-23T09:18:00;97850.66;;;22.51;73.84
50790;BME280;37287;47.554;7.844;2023-05-23T09:20:27;97841.53;;;22.32;74.54
50790;BME280;37287;47.554;7.844;2023-05-23T09:22:54;97843.81;;;22.24;77.21
50790;BME280;37287;47.554;7.844;2023-05-23T09:25:29;97842.97;;;21.96;81.41
50790;BME280;37287;47.554;7.844;2023-05-23T09:27:56;97841.81;;;21.84;83.48
50790;BME280;37287;47.554;7.844;2023-05-23T09:30:25;97849.28;;;21.74;84.31
50790;BME280;37287;47.554;7.844;2023-05-23T09:32:59;97852.63;;;21.69;85.52
50790;BME280;37287;47.554;7.844;2023-05-23T09:35:31;97839.88;;;21.40;85.38
50790;BME280;37287;47.554;7.844;2023-05-23T09:38:00;97842.91;;;21.33;86.66
50790;BME280;37287;47.554;7.844;2023-05-23T09:40:30;97842.50;;;21.22;87.29
50790;BME280;37287;47.554;7.844;2023-05-23T09:43:02;97836.72;;;21.20;88.68
50790;BME280;37287;47.554;7.844;2023-05-23T09:45:33;97837.00;;;21.22;87.85
50790;BME280;37287;47.554;7.844;2023-05-23T09:48:01;97836.50;;;21.36;87.81
50790;BME280;37287;47.554;7.844;2023-05-23T09:50:33;97839.94;;;21.50;87.37
50790;BME280;37287;47.554;7.844;2023-05-23T09:53:01;97834.56;;;21.68;86.84
50790;BME280;37287;47.554;7.844;2023-05-23T09:55:30;97835.72;;;21.89;85.21
50790;BME280;37287;47.554;7.844;2023-05-23T09:57:58;97826.47;;;22.14;84.26
50790;BME280;37287;47.554;7.844;2023-05-23T10:00:27;97828.38;;;22.27;82.92
50790;BME280;37287;47.554;7.844;2023-05-23T10:05:30;97827.06;;;22.69;80.35
50790;BME280;37287;47.554;7.844;2023-05-23T10:08:06;97829.38;;;22.70;81.07
50790;BME280;37287;47.554;7.844;2023-05-23T10:10:34;97817.09;;;22.71;80.31
50790;BME280;37287;47.554;7.844;2023-05-23T10:13:04;97822.03;;;22.95;80.64
50790;BME280;37287;47.554;7.844;2023-05-23T10:15:36;97825.09;;;23.06;79.05
50790;BME280;37287;47.554;7.844;2023-05-23T10:18:08;97834.16;;;23.16;78.69
50790;BME280;37287;47.554;7.844;2023-05-23T10:20:39;97828.31;;;23.23;76.58
50790;BME280;37287;47.554;7.844;2023-05-23T10:23:09;97825.84;;;23.07;76.61
50790;BME280;37287;47.554;7.844;2023-05-23T10:25:37;97826.31;;;23.24;77.79
50790;BME280;37287;47.554;7.844;2023-05-23T10:28:04;97834.25;;;23.49;76.74
50790;BME280;37287;47.554;7.844;2023-05-23T10:30:31;97828.31;;;23.94;75.43
50790;BME280;37287;47.554;7.844;2023-05-23T10:32:58;97829.66;;;23.98;74.85
50790;BME280;37287;47.554;7.844;2023-05-23T10:35:40;97817.28;;;24.42;72.55
50790;BME280;37287;47.554;7.844;2023-05-23T10:38:33;97826.94;;;24.71;70.74
50790;BME280;37287;47.554;7.844;2023-05-23T10:41:12;97821.16;;;24.60;69.93
50790;BME280;37287;47.554;7.844;2023-05-23T10:43:48;97818.38;;;24.60;69.28
50790;BME280;37287;47.554;7.844;2023-05-23T10:46:19;97818.22;;;25.02;67.73
50790;BME280;37287;47.554;7.844;2023-05-23T10:48:52;97807.75;;;25.36;66.18
50790;BME280;37287;47.554;7.844;2023-05-23T10:51:24;97808.84;;;25.54;64.88
50790;BME280;37287;47.554;7.844;2023-05-23T10:53:53;97803.00;;;25.37;64.77
50790;BME280;37287;47.554;7.844;2023-05-23T10:56:23;97798.03;;;25.41;63.48
50790;BME280;37287;47.554;7.844;2023-05-23T10:58:55;97800.56;;;25.89;63.25
50790;BME280;37287;47.554;7.844;2023-05-23T11:01:26;97796.13;;;25.47;64.62
50790;BME280;37287;47.554;7.844;2023-05-23T11:03:54;97800.00;;;25.11;66.81
50790;BME280;37287;47.554;7.844;2023-05-23T11:06:42;97787.53;;;24.76;64.49
50790;BME280;37287;47.554;7.844;2023-05-23T11:11:59;97788.44;;;24.34;66.07
50790;BME280;37287;47.554;7.844;2023-05-23T11:14:33;97786.53;;;24.16;65.59
50790;BME280;37287;47.554;7.844;2023-05-23T11:17:14;97790.34;;;23.94;67.76
50790;BME280;37287;47.554;7.844;2023-05-23T11:19:55;97802.81;;;23.90;68.20
50790;BME280;37287;47.554;7.844;2023-05-23T11:22:30;97795.59;;;23.83;67.19
50790;BME280;37287;47.554;7.844;2023-05-23T11:24:58;97797.78;;;23.69;67.64
50790;BME280;37287;47.554;7.844;2023-05-23T11:30:00;97797.75;;;23.79;67.04
50790;BME280;37287;47.554;7.844;2023-05-23T11:32:29;97797.56;;;23.92;65.68
50790;BME280;37287;47.554;7.844;2023-05-23T11:35:02;97791.59;;;24.17;64.82
50790;BME280;37287;47.554;7.844;2023-05-23T11:37:31;97780.38;;;24.21;64.41
50790;BME280;37287;47.554;7.844;2023-05-23T11:39:58;97786.25;;;24.38;64.06
50790;BME280;37287;47.554;7.844;2023-05-23T11:42:25;97791.78;;;24.38;63.42
50790;BME280;37287;47.554;7.844;2023-05-23T11:44:54;97786.31;;;24.29;63.67
50790;BME280;37287;47.554;7.844;2023-05-23T11:47:21;97794.09;;;24.15;64.18
50790;BME280;37287;47.554;7.844;2023-05-23T11:49:47;97787.00;;;23.81;65.77
50790;BME280;37287;47.554;7.844;2023-05-23T11:52:16;97785.22;;;23.68;66.67
50790;BME280;37287;47.554;7.844;2023-05-23T11:54:42;97787.88;;;23.53;66.16
50790;BME280;37287;47.554;7.844;2023-05-23T11:57:09;97801.88;;;23.31;67.28
50790;BME280;37287;47.554;7.844;2023-05-23T11:59:41;97809.91;;;22.92;70.27
50790;BME280;37287;47.554;7.844;2023-05-23T12:02:07;97803.72;;;22.32;76.17
50790;BME280;37287;47.554;7.844;2023-05-23T12:04:34;97813.63;;;21.80;78.85
50790;BME280;37287;47.554;7.844;2023-05-23T12:07:04;97812.84;;;21.17;84.89
50790;BME280;37287;47.554;7.844;2023-05-23T12:09:40;97810.16;;;20.69;94.80
50790;BME280;37287;47.554;7.844;2023-05-23T12:12:07;97814.50;;;20.31;99.89
50790;BME280;37287;47.554;7.844;2023-05-23T12:14:34;97805.75;;;19.98;100.00
50790;BME280;37287;47.554;7.844;2023-05-23T12:17:01;97809.34;;;19.56;100.00
50790;BME280;37287;47.554;7.844;2023-05-23T12:19:34;97797.31;;;19.24;100.00
50790;BME280;37287;47.554;7.844;2023-05-23T12:22:05;97793.19;;;19.03;100.00
50790;BME280;37287;47.554;7.844;2023-05-23T12:24:35;97787.34;;;18.71;100.00
50790;BME280;37287;47.554;7.844;2023-05-23T12:27:02;97790.63;;;18.66;100.00
50790;BME280;37287;47.554;7.844;2023-05-23T12:29:30;97783.47;;;18.85;100.00
50790;BME280;37287;47.554;7.844;2023-05-23T12:32:03;97781.94;;;19.14;100.00
50790;BME280;37287;47.554;7.844;2023-05-23T12:34:30;97783.81;;;19.30;100.00
50790;BME280;37287;47.554;7.844;2023-05-23T12:36:58;97777.81;;;19.61;100.00
50790;BME280;37287;47.554;7.844;2023-05-23T12:39:44;97775.31;;;19.92;100.00
50790;BME280;37287;47.554;7.844;2023-05-23T12:42:11;97771.44;;;20.15;100.00
50790;BME280;37287;47.554;7.844;2023-05-23T12:44:42;97773.69;;;20.42;100.00
50790;BME280;37287;47.554;7.844;2023-05-23T12:47:11;97771.44;;;20.63;100.00
50790;BME280;37287;47.554;7.844;2023-05-23T12:49:38;97777.59;;;20.67;100.00
50790;BME280;37287;47.554;7.844;2023-05-23T12:52:05;97768.91;;;20.69;100.00
50790;BME280;37287;47.554;7.844;2023-05-23T12:54:32;97765.44;;;20.77;100.00
50790;BME280;37287;47.554;7.844;2023-05-23T12:56:59;97763.16;;;20.76;96.43
50790;BME280;37287;47.554;7.844;2023-05-23T12:59:28;97760.16;;;20.83;95.14
50790;BME280;37287;47.554;7.844;2023-05-23T13:01:54;97759.44;;;20.92;92.30
50790;BME280;37287;47.554;7.844;2023-05-23T13:04:21;97753.94;;;20.92;90.49
50790;BME280;37287;47.554;7.844;2023-05-23T13:06:47;97753.56;;;21.03;89.52
50790;BME280;37287;47.554;7.844;2023-05-23T13:09:14;97749.00;;;21.09;83.56
50790;BME280;37287;47.554;7.844;2023-05-23T13:11:42;97743.84;;;21.20;84.87
50790;BME280;37287;47.554;7.844;2023-05-23T13:14:15;97743.66;;;21.37;83.90
50790;BME280;37287;47.554;7.844;2023-05-23T13:16:42;97746.19;;;21.53;86.68
50790;BME280;37287;47.554;7.844;2023-05-23T13:19:10;97750.97;;;21.62;84.72
50790;BME280;37287;47.554;7.844;2023-05-23T13:21:37;97751.28;;;21.64;82.34
50790;BME280;37287;47.554;7.844;2023-05-23T13:24:03;97745.34;;;21.75;83.66
50790;BME280;37287;47.554;7.844;2023-05-23T13:26:54;97752.59;;;21.91;85.76
50790;BME280;37287;47.554;7.844;2023-05-23T13:29:23;97746.50;;;21.96;87.24
50790;BME280;37287;47.554;7.844;2023-05-23T13:31:49;97746.78;;;21.98;88.17
50790;BME280;37287;47.554;7.844;2023-05-23T13:34:16;97741.78;;;22.06;88.10